sensor_id;sensor_type;location;lat;lon;timestamp;temperature;humidity
78479;SHT31;67769;51.972;5.668;2024-03-23T00:54:52;9.5;79.3
78479;SHT31;67769;51.972;5.668;2024-03-23T00:57:21;9.5;79.6
78479;SHT31;67769;51.972;5.668;2024-03-23T00:59:50;9.5;79.4
78479;SHT31;67769;51.972;5.668;2024-03-23T01:02:18;9.5;79.3
78479;SHT31;67769;51.972;5.668;2024-03-23T01:04:47;9.4;79.2
78479;SHT31;67769;51.972;5.668;2024-03-23T01:07:15;9.4;79.6
78479;SHT31;67769;51.972;5.668;2024-03-23T01:09:44;9.4;79.9
78479;SHT31;67769;51.972;5.668;2024-03-23T01:12:12;9.4;79.8
78479;SHT31;67769;51.972;5.668;2024-03-23T01:14:41;9.4;79.3
78479;SHT31;67769;51.972;5.668;2024-03-23T01:17:10;9.4;79.3
78479;SHT31;67769;51.972;5.668;2024-03-23T01:19:38;9.4;79.2
78479;SHT31;67769;51.972;5.668;2024-03-23T01:22:07;9.4;79.3
78479;SHT31;67769;51.972;5.668;2024-03-23T01:24:36;9.4;79.3
78479;SHT31;67769;51.972;5.668;2024-03-23T01:27:05;9.4;79.1
78479;SHT31;67769;51.972;5.668;2024-03-23T01:29:33;9.3;79.2
78479;SHT31;67769;51.972;5.668;2024-03-23T01:32:02;9.3;79.6
78479;SHT31;67769;51.972;5.668;2024-03-23T01:34:31;9.3;79.8
78479;SHT31;67769;51.972;5.668;2024-03-23T01:36:59;9.3;80.2
78479;SHT31;67769;51.972;5.668;2024-03-23T01:39:28;9.3;80.4
78479;SHT31;67769;51.972;5.668;2024-03-23T01:41:56;9.3;80.1
78479;SHT31;67769;51.972;5.668;2024-03-23T01:44:25;9.3;80.2
78479;SHT31;67769;51.972;5.668;2024-03-23T01:46:55;9.2;80.4
78479;SHT31;67769;51.972;5.668;2024-03-23T01:49:24;9.2;80.5
78479;SHT31;67769;51.972;5.668;2024-03-23T01:51:53;9.2;80.6
78479;SHT31;67769;51.972;5.668;2024-03-23T01:54:23;9.2;80.6
78479;SHT31;67769;51.972;5.668;2024-03-23T01:56:54;9.2;80.7
78479;SHT31;67769;51.972;5.668;2024-03-23T01:59:23;9.2;80.9
78479;SHT31;67769;51.972;5.668;2024-03-23T02:01:52;9.2;80.8
78479;SHT31;67769;51.972;5.668;2024-03-23T02:04:20;9.2;81.2
78479;SHT31;67769;51.972;5.668;2024-03-23T02:06:49;9.2;81.1
78479;SHT31;67769;51.972;5.668;2024-03-23T02:09:18;9.2;81.0
78479;SHT31;67769;51.972;5.668;2024-03-23T02:11:46;9.3;81.1
78479;SHT31;67769;51.972;5.668;2024-03-23T02:14:15;9.3;81.0
78479;SHT31;67769;51.972;5.668;2024-03-23T02:16:43;9.3;80.9
78479;SHT31;67769;51.972;5.668;2024-03-23T02:19:13;9.3;80.6
78479;SHT31;67769;51.972;5.668;2024-03-23T02:21:42;9.3;80.6
78479;SHT31;67769;51.972;5.668;2024-03-23T02:24:10;9.3;80.5
78479;SHT31;67769;51.972;5.668;2024-03-23T02:26:39;9.3;80.2
78479;SHT31;67769;51.972;5.668;2024-03-23T02:29:07;9.3;80.1
78479;SHT31;67769;51.972;5.668;2024-03-23T02:31:38;9.3;79.9
78479;SHT31;67769;51.972;5.668;2024-03-23T02:34:07;9.3;79.9
78479;SHT31;67769;51.972;5.668;2024-03-23T02:36:35;9.2;79.7
78479;SHT31;67769;51.972;5.668;2024-03-23T02:39:04;9.2;79.6
78479;SHT31;67769;51.972;5.668;2024-03-23T02:41:33;9.1;79.7
78479;SHT31;67769;51.972;5.668;2024-03-23T02:44:01;9.1;79.7
78479;SHT31;67769;51.972;5.668;2024-03-23T02:46:30;9.0;79.8
78479;SHT31;67769;51.972;5.668;2024-03-23T02:48:59;9.0;79.9
78479;SHT31;67769;51.972;5.668;2024-03-23T02:51:30;8.9;80.0
78479;SHT31;67769;51.972;5.668;2024-03-23T02:53:59;8.9;80.1
78479;SHT31;67769;51.972;5.668;2024-03-23T02:56:28;8.8;80.2
78479;SHT31;67769;51.972;5.668;2024-03-23T02:58:56;8.8;80.2
78479;SHT31;67769;51.972;5.668;2024-03-23T03:01:25;8.8;80.2
78479;SHT31;67769;51.972;5.668;2024-03-23T03:03:53;8.7;80.3
78479;SHT31;67769;51.972;5.668;2024-03-23T03:06:25;8.6;80.4
78479;SHT31;67769;51.972;5.668;2024-03-23T03:08:54;8.6;80.6
78479;SHT31;67769;51.972;5.668;2024-03-23T03:11:23;8.5;80.7
78479;SHT31;67769;51.972;5.668;2024-03-23T03:13:52;8.5;80.7
78479;SHT31;67769;51.972;5.668;2024-03-23T03:16:20;8.5;80.7
78479;SHT31;67769;51.972;5.668;2024-03-23T03:18:49;8.4;80.8
78479;SHT31;67769;51.972;5.668;2024-03-23T03:21:19;8.4;80.8
78479;SHT31;67769;51.972;5.668;2024-03-23T03:23:48;8.3;81.0
78479;SHT31;67769;51.972;5.668;2024-03-23T03:26:17;8.3;81.5
78479;SHT31;67769;51.972;5.668;2024-03-23T03:28:48;8.3;81.9
78479;SHT31;67769;51.972;5.668;2024-03-23T03:31:17;8.3;82.0
78479;SHT31;67769;51.972;5.668;2024-03-23T03:33:46;8.2;81.8
78479;SHT31;67769;51.972;5.668;2024-03-23T03:36:14;8.2;81.7
78479;SHT31;67769;51.972;5.668;2024-03-23T03:38:43;8.2;81.5
78479;SHT31;67769;51.972;5.668;2024-03-23T03:41:12;8.2;81.3
78479;SHT31;67769;51.972;5.668;2024-03-23T03:43:40;8.2;81.0
78479;SHT31;67769;51.972;5.668;2024-03-23T03:46:08;8.2;80.7
78479;SHT31;67769;51.972;5.668;2024-03-23T03:48:39;8.2;80.5
78479;SHT31;67769;51.972;5.668;2024-03-23T03:51:09;8.1;80.4
78479;SHT31;67769;51.972;5.668;2024-03-23T03:53:38;8.1;80.3
78479;SHT31;67769;51.972;5.668;2024-03-23T03:56:06;8.1;80.0
78479;SHT31;67769;51.972;5.668;2024-03-23T03:58:35;8.1;79.7
78479;SHT31;67769;51.972;5.668;2024-03-23T04:01:03;8.0;79.8
78479;SHT31;67769;51.972;5.668;2024-03-23T04:03:32;8.0;79.7
78479;SHT31;67769;51.972;5.668;2024-03-23T04:06:00;8.0;79.7
78479;SHT31;67769;51.972;5.668;2024-03-23T04:08:29;7.9;79.5
78479;SHT31;67769;51.972;5.668;2024-03-23T04:10:58;7.9;79.5
78479;SHT31;67769;51.972;5.668;2024-03-23T04:13:26;7.9;79.4
78479;SHT31;67769;51.972;5.668;2024-03-23T04:15:56;7.9;79.2
78479;SHT31;67769;51.972;5.668;2024-03-23T04:18:27;7.8;79.1
78479;SHT31;67769;51.972;5.668;2024-03-23T04:20:55;7.8;78.9
78479;SHT31;67769;51.972;5.668;2024-03-23T04:23:23;7.8;78.8
78479;SHT31;67769;51.972;5.668;2024-03-23T04:25:52;7.8;78.6
78479;SHT31;67769;51.972;5.668;2024-03-23T04:28:20;7.7;78.4
78479;SHT31;67769;51.972;5.668;2024-03-23T04:30:49;7.7;78.5
78479;SHT31;67769;51.972;5.668;2024-03-23T04:33:17;7.7;78.4
78479;SHT31;67769;51.972;5.668;2024-03-23T04:35:48;7.6;78.5
78479;SHT31;67769;51.972;5.668;2024-03-23T04:38:17;7.6;78.5
78479;SHT31;67769;51.972;5.668;2024-03-23T04:40:55;7.6;78.3
78479;SHT31;67769;51.972;5.668;2024-03-23T04:43:25;7.5;78.4
78479;SHT31;67769;51.972;5.668;2024-03-23T04:45:54;7.5;78.3
78479;SHT31;67769;51.972;5.668;2024-03-23T04:48:23;7.5;78.1
78479;SHT31;67769;51.972;5.668;2024-03-23T04:50:57;7.5;77.8
78479;SHT31;67769;51.972;5.668;2024-03-23T04:53:26;7.4;77.8
78479;SHT31;67769;51.972;5.668;2024-03-23T04:55:57;7.4;77.7
78479;SHT31;67769;51.972;5.668;2024-03-23T04:58:26;7.4;77.6
78479;SHT31;67769;51.972;5.668;2024-03-23T05:00:56;7.4;77.6
78479;SHT31;67769;51.972;5.668;2024-03-23T05:03:24;7.4;77.6
78479;SHT31;67769;51.972;5.668;2024-03-23T05:05:53;7.3;77.7
78479;SHT31;67769;51.972;5.668;2024-03-23T05:08:23;7.3;77.7
78479;SHT31;67769;51.972;5.668;2024-03-23T05:10:52;7.3;77.7
78479;SHT31;67769;51.972;5.668;2024-03-23T05:13:20;7.3;77.5
78479;SHT31;67769;51.972;5.668;2024-03-23T05:15:53;7.3;77.6
78479;SHT31;67769;51.972;5.668;2024-03-23T05:18:22;7.3;77.7
78479;SHT31;67769;51.972;5.668;2024-03-23T05:20:57;7.3;77.8
78479;SHT31;67769;51.972;5.668;2024-03-23T05:23:27;7.2;77.7
78479;SHT31;67769;51.972;5.668;2024-03-23T05:25:56;7.2;77.5
78479;SHT31;67769;51.972;5.668;2024-03-23T05:28:25;7.2;77.5
78479;SHT31;67769;51.972;5.668;2024-03-23T05:30:54;7.2;77.5
78479;SHT31;67769;51.972;5.668;2024-03-23T05:33:23;7.2;77.5
78479;SHT31;67769;51.972;5.668;2024-03-23T05:35:58;7.1;77.4
78479;SHT31;67769;51.972;5.668;2024-03-23T05:38:27;7.1;77.6
78479;SHT31;67769;51.972;5.668;2024-03-23T05:40:58;7.1;77.7
78479;SHT31;67769;51.972;5.668;2024-03-23T05:43:26;7.1;77.7
78479;SHT31;67769;51.972;5.668;2024-03-23T05:45:56;7.1;77.7
78479;SHT31;67769;51.972;5.668;2024-03-23T05:48:26;7.1;77.5
78479;SHT31;67769;51.972;5.668;2024-03-23T05:50:56;7.1;77.4
78479;SHT31;67769;51.972;5.668;2024-03-23T05:53:25;7.1;77.5
78479;SHT31;67769;51.972;5.668;2024-03-23T05:56:02;7.0;77.6
78479;SHT31;67769;51.972;5.668;2024-03-23T05:58:33;7.0;77.5
78479;SHT31;67769;51.972;5.668;2024-03-23T06:01:02;7.0;77.6
78479;SHT31;67769;51.972;5.668;2024-03-23T06:03:31;7.0;77.5
78479;SHT31;67769;51.972;5.668;2024-03-23T06:06:01;7.0;77.6
78479;SHT31;67769;51.972;5.668;2024-03-23T06:08:30;7.0;77.5
78479;SHT31;67769;51.972;5.668;2024-03-23T06:10:59;7.0;77.6
78479;SHT31;67769;51.972;5.668;2024-03-23T06:13:29;7.1;77.9
78479;SHT31;67769;51.972;5.668;2024-03-23T06:15:57;7.1;78.5
78479;SHT31;67769;51.972;5.668;2024-03-23T06:18:26;7.1;78.3
78479;SHT31;67769;51.972;5.668;2024-03-23T06:20:55;7.2;78.3
78479;SHT31;67769;51.972;5.668;2024-03-23T06:23:23;7.2;77.9
78479;SHT31;67769;51.972;5.668;2024-03-23T06:25:52;7.2;77.7
78479;SHT31;67769;51.972;5.668;2024-03-23T06:28:21;7.3;77.6
78479;SHT31;67769;51.972;5.668;2024-03-23T06:30:50;7.3;77.9
78479;SHT31;67769;51.972;5.668;2024-03-23T06:33:18;7.3;78.1
78479;SHT31;67769;51.972;5.668;2024-03-23T06:35:51;7.3;77.8
78479;SHT31;67769;51.972;5.668;2024-03-23T06:38:20;7.4;77.5
78479;SHT31;67769;51.972;5.668;2024-03-23T06:40:48;7.4;77.2
78479;SHT31;67769;51.972;5.668;2024-03-23T06:43:19;7.4;77.0
78479;SHT31;67769;51.972;5.668;2024-03-23T06:45:54;7.5;77.0
78479;SHT31;67769;51.972;5.668;2024-03-23T06:48:23;7.5;76.7
78479;SHT31;67769;51.972;5.668;2024-03-23T06:50:55;7.5;77.1
78479;SHT31;67769;51.972;5.668;2024-03-23T06:53:24;7.6;76.7
78479;SHT31;67769;51.972;5.668;2024-03-23T06:55:54;7.7;76.9
78479;SHT31;67769;51.972;5.668;2024-03-23T06:58:24;7.7;76.3
78479;SHT31;67769;51.972;5.668;2024-03-23T07:00:54;7.7;75.9
78479;SHT31;67769;51.972;5.668;2024-03-23T07:03:23;7.8;75.4
78479;SHT31;67769;51.972;5.668;2024-03-23T07:05:52;7.8;75.0
78479;SHT31;67769;51.972;5.668;2024-03-23T07:08:21;7.8;75.7
78479;SHT31;67769;51.972;5.668;2024-03-23T07:10:50;7.9;75.9
78479;SHT31;67769;51.972;5.668;2024-03-23T07:13:18;7.9;74.9
78479;SHT31;67769;51.972;5.668;2024-03-23T07:15:53;7.9;74.8
78479;SHT31;67769;51.972;5.668;2024-03-23T07:18:22;8.0;74.7
78479;SHT31;67769;51.972;5.668;2024-03-23T07:20:54;8.0;75.1
78479;SHT31;67769;51.972;5.668;2024-03-23T07:23:23;8.0;75.2
78479;SHT31;67769;51.972;5.668;2024-03-23T07:25:58;8.1;75.8
78479;SHT31;67769;51.972;5.668;2024-03-23T07:28:27;8.1;76.1
78479;SHT31;67769;51.972;5.668;2024-03-23T07:31:05;8.2;75.5
78479;SHT31;67769;51.972;5.668;2024-03-23T07:33:36;8.4;75.4
78479;SHT31;67769;51.972;5.668;2024-03-23T07:36:05;8.6;75.1
78479;SHT31;67769;51.972;5.668;2024-03-23T07:38:34;8.8;74.1
78479;SHT31;67769;51.972;5.668;2024-03-23T07:41:07;9.1;73.4
78479;SHT31;67769;51.972;5.668;2024-03-23T07:43:37;9.4;71.9
78479;SHT31;67769;51.972;5.668;2024-03-23T07:46:06;9.5;72.7
78479;SHT31;67769;51.972;5.668;2024-03-23T07:48:35;9.7;70.7
78479;SHT31;67769;51.972;5.668;2024-03-23T07:51:04;9.8;68.9
78479;SHT31;67769;51.972;5.668;2024-03-23T07:53:35;9.9;68.6
78479;SHT31;67769;51.972;5.668;2024-03-23T07:56:06;9.9;68.7
78479;SHT31;67769;51.972;5.668;2024-03-23T07:58:37;10.0;68.2
78479;SHT31;67769;51.972;5.668;2024-03-23T08:01:08;10.1;67.4
78479;SHT31;67769;51.972;5.668;2024-03-23T08:03:37;10.3;67.1
78479;SHT31;67769;51.972;5.668;2024-03-23T08:06:11;10.4;67.7
78479;SHT31;67769;51.972;5.668;2024-03-23T08:08:42;10.6;66.8
78479;SHT31;67769;51.972;5.668;2024-03-23T08:11:11;10.7;65.2
78479;SHT31;67769;51.972;5.668;2024-03-23T08:13:41;10.8;65.0
78479;SHT31;67769;51.972;5.668;2024-03-23T08:16:10;10.8;65.7
78479;SHT31;67769;51.972;5.668;2024-03-23T08:18:40;10.9;65.1
78479;SHT31;67769;51.972;5.668;2024-03-23T08:21:08;10.9;65.2
78479;SHT31;67769;51.972;5.668;2024-03-23T08:23:37;11.0;64.8
78479;SHT31;67769;51.972;5.668;2024-03-23T08:26:07;11.1;64.6
78479;SHT31;67769;51.972;5.668;2024-03-23T08:28:36;11.3;64.6
78479;SHT31;67769;51.972;5.668;2024-03-23T08:31:08;11.5;63.0
78479;SHT31;67769;51.972;5.668;2024-03-23T08:33:37;11.6;61.0
78479;SHT31;67769;51.972;5.668;2024-03-23T08:36:08;11.6;59.5
78479;SHT31;67769;51.972;5.668;2024-03-23T08:38:40;11.5;59.1
78479;SHT31;67769;51.972;5.668;2024-03-23T08:41:10;11.3;59.0
78479;SHT31;67769;51.972;5.668;2024-03-23T08:43:40;11.1;60.9
78479;SHT31;67769;51.972;5.668;2024-03-23T08:46:11;11.1;59.9
78479;SHT31;67769;51.972;5.668;2024-03-23T08:48:41;10.9;60.9
78479;SHT31;67769;51.972;5.668;2024-03-23T08:51:13;10.8;61.3
78479;SHT31;67769;51.972;5.668;2024-03-23T08:53:42;10.6;61.6
78479;SHT31;67769;51.972;5.668;2024-03-23T08:56:11;10.3;64.4
78479;SHT31;67769;51.972;5.668;2024-03-23T08:58:40;10.1;65.7
78479;SHT31;67769;51.972;5.668;2024-03-23T09:01:09;10.0;68.8
78479;SHT31;67769;51.972;5.668;2024-03-23T09:03:40;10.0;69.4
78479;SHT31;67769;51.972;5.668;2024-03-23T09:06:09;10.1;67.7
78479;SHT31;67769;51.972;5.668;2024-03-23T09:08:39;10.0;66.7
78479;SHT31;67769;51.972;5.668;2024-03-23T09:11:10;9.8;65.8
78479;SHT31;67769;51.972;5.668;2024-03-23T09:13:39;9.6;67.6
78479;SHT31;67769;51.972;5.668;2024-03-23T09:16:08;9.6;67.0
78479;SHT31;67769;51.972;5.668;2024-03-23T09:18:38;9.7;69.7
78479;SHT31;67769;51.972;5.668;2024-03-23T09:21:13;10.0;67.8
78479;SHT31;67769;51.972;5.668;2024-03-23T09:23:43;10.4;66.0
78479;SHT31;67769;51.972;5.668;2024-03-23T09:26:11;10.6;63.3
78479;SHT31;67769;51.972;5.668;2024-03-23T09:28:40;10.6;64.4
78479;SHT31;67769;51.972;5.668;2024-03-23T09:31:09;10.7;62.3
78479;SHT31;67769;51.972;5.668;2024-03-23T09:33:42;10.8;62.5
78479;SHT31;67769;51.972;5.668;2024-03-23T09:36:10;10.9;62.7
78479;SHT31;67769;51.972;5.668;2024-03-23T09:38:39;11.0;63.5
78479;SHT31;67769;51.972;5.668;2024-03-23T09:41:09;11.1;62.5
78479;SHT31;67769;51.972;5.668;2024-03-23T09:43:38;11.2;64.0
78479;SHT31;67769;51.972;5.668;2024-03-23T09:46:09;11.3;62.9
78479;SHT31;67769;51.972;5.668;2024-03-23T09:48:38;11.3;60.9
78479;SHT31;67769;51.972;5.668;2024-03-23T09:51:09;11.3;60.8
78479;SHT31;67769;51.972;5.668;2024-03-23T09:53:38;11.2;62.2
78479;SHT31;67769;51.972;5.668;2024-03-23T09:56:07;11.3;62.2
78479;SHT31;67769;51.972;5.668;2024-03-23T09:58:37;11.4;59.6
78479;SHT31;67769;51.972;5.668;2024-03-23T10:01:05;11.5;59.2
78479;SHT31;67769;51.972;5.668;2024-03-23T10:03:43;11.6;56.4
78479;SHT31;67769;51.972;5.668;2024-03-23T10:06:12;11.7;58.5
78479;SHT31;67769;51.972;5.668;2024-03-23T10:08:41;11.9;57.5
78479;SHT31;67769;51.972;5.668;2024-03-23T10:11:16;12.0;55.7
78479;SHT31;67769;51.972;5.668;2024-03-23T10:13:45;12.1;55.1
78479;SHT31;67769;51.972;5.668;2024-03-23T10:16:24;12.2;54.7
78479;SHT31;67769;51.972;5.668;2024-03-23T10:18:53;12.0;55.9
78479;SHT31;67769;51.972;5.668;2024-03-23T10:21:21;11.5;58.9
78479;SHT31;67769;51.972;5.668;2024-03-23T10:23:50;11.1;61.8
78479;SHT31;67769;51.972;5.668;2024-03-23T10:26:20;10.9;62.6
78479;SHT31;67769;51.972;5.668;2024-03-23T10:28:54;10.9;64.2
78479;SHT31;67769;51.972;5.668;2024-03-23T10:31:24;10.9;63.5
78479;SHT31;67769;51.972;5.668;2024-03-23T10:33:53;10.9;60.0
78479;SHT31;67769;51.972;5.668;2024-03-23T10:36:23;11.0;59.8
78479;SHT31;67769;51.972;5.668;2024-03-23T10:38:54;11.0;59.5
78479;SHT31;67769;51.972;5.668;2024-03-23T10:41:26;11.0;60.7
78479;SHT31;67769;51.972;5.668;2024-03-23T10:43:58;10.9;61.5
78479;SHT31;67769;51.972;5.668;2024-03-23T10:46:26;10.9;60.7
78479;SHT31;67769;51.972;5.668;2024-03-23T10:48:55;10.8;58.0
78479;SHT31;67769;51.972;5.668;2024-03-23T10:51:24;10.7;58.1
78479;SHT31;67769;51.972;5.668;2024-03-23T10:53:55;10.6;58.7
78479;SHT31;67769;51.972;5.668;2024-03-23T10:56:27;10.6;58.3
78479;SHT31;67769;51.972;5.668;2024-03-23T10:59:04;10.6;58.2
78479;SHT31;67769;51.972;5.668;2024-03-23T11:01:35;10.6;57.3
78479;SHT31;67769;51.972;5.668;2024-03-23T11:04:03;10.6;57.0
78479;SHT31;67769;51.972;5.668;2024-03-23T11:06:36;10.6;57.5
78479;SHT31;67769;51.972;5.668;2024-03-23T11:09:37;10.6;59.0
78479;SHT31;67769;51.972;5.668;2024-03-23T11:12:18;10.6;60.1
78479;SHT31;67769;51.972;5.668;2024-03-23T11:14:52;10.8;58.3
78479;SHT31;67769;51.972;5.668;2024-03-23T11:17:23;10.8;58.4
78479;SHT31;67769;51.972;5.668;2024-03-23T11:19:56;10.7;57.7
78479;SHT31;67769;51.972;5.668;2024-03-23T11:22:41;10.7;57.6
78479;SHT31;67769;51.972;5.668;2024-03-23T11:25:20;10.6;57.8
78479;SHT31;67769;51.972;5.668;2024-03-23T11:27:51;10.5;59.4
78479;SHT31;67769;51.972;5.668;2024-03-23T11:30:21;10.4;61.6
78479;SHT31;67769;51.972;5.668;2024-03-23T11:32:51;10.3;63.9
78479;SHT31;67769;51.972;5.668;2024-03-23T11:35:27;10.4;62.6
78479;SHT31;67769;51.972;5.668;2024-03-23T11:38:04;10.4;62.9
78479;SHT31;67769;51.972;5.668;2024-03-23T11:40:34;10.4;61.9
78479;SHT31;67769;51.972;5.668;2024-03-23T11:43:05;10.5;61.9
78479;SHT31;67769;51.972;5.668;2024-03-23T11:45:38;10.5;59.2
78479;SHT31;67769;51.972;5.668;2024-03-23T11:48:09;10.5;58.2
78479;SHT31;67769;51.972;5.668;2024-03-23T11:50:41;10.5;57.5
78479;SHT31;67769;51.972;5.668;2024-03-23T11:53:17;10.4;57.7
78479;SHT31;67769;51.972;5.668;2024-03-23T11:55:51;10.3;57.7
78479;SHT31;67769;51.972;5.668;2024-03-23T11:58:21;10.3;59.7
78479;SHT31;67769;51.972;5.668;2024-03-23T12:00:57;10.3;61.2
78479;SHT31;67769;51.972;5.668;2024-03-23T12:03:26;10.3;59.6
78479;SHT31;67769;51.972;5.668;2024-03-23T12:05:57;10.2;60.0
78479;SHT31;67769;51.972;5.668;2024-03-23T12:08:31;10.2;59.7
78479;SHT31;67769;51.972;5.668;2024-03-23T12:11:07;10.1;60.9
78479;SHT31;67769;51.972;5.668;2024-03-23T12:13:38;10.1;62.4
78479;SHT31;67769;51.972;5.668;2024-03-23T12:16:12;10.1;60.8
78479;SHT31;67769;51.972;5.668;2024-03-23T12:18:42;10.2;60.4
78479;SHT31;67769;51.972;5.668;2024-03-23T12:21:11;10.3;59.5
78479;SHT31;67769;51.972;5.668;2024-03-23T12:23:41;10.3;56.8
78479;SHT31;67769;51.972;5.668;2024-03-23T12:26:10;10.3;56.2
78479;SHT31;67769;51.972;5.668;2024-03-23T12:28:39;10.4;55.9
78479;SHT31;67769;51.972;5.668;2024-03-23T12:31:09;10.4;58.0
78479;SHT31;67769;51.972;5.668;2024-03-23T12:33:38;10.4;56.2
78479;SHT31;67769;51.972;5.668;2024-03-23T12:36:08;10.5;57.3
78479;SHT31;67769;51.972;5.668;2024-03-23T12:38:36;10.6;59.6
78479;SHT31;67769;51.972;5.668;2024-03-23T12:41:05;10.7;60.8
78479;SHT31;67769;51.972;5.668;2024-03-23T12:43:34;10.8;63.0
78479;SHT31;67769;51.972;5.668;2024-03-23T12:46:04;10.8;59.5
78479;SHT31;67769;51.972;5.668;2024-03-23T12:48:34;10.8;57.2
78479;SHT31;67769;51.972;5.668;2024-03-23T12:51:03;10.8;57.0
78479;SHT31;67769;51.972;5.668;2024-03-23T12:53:32;10.8;59.1
78479;SHT31;67769;51.972;5.668;2024-03-23T12:56:00;10.9;56.7
78479;SHT31;67769;51.972;5.668;2024-03-23T12:58:29;10.9;56.7
78479;SHT31;67769;51.972;5.668;2024-03-23T13:00:59;10.9;57.8
78479;SHT31;67769;51.972;5.668;2024-03-23T13:03:28;10.9;57.5
78479;SHT31;67769;51.972;5.668;2024-03-23T13:05:57;10.9;56.5
78479;SHT31;67769;51.972;5.668;2024-03-23T13:08:25;10.9;56.6
78479;SHT31;67769;51.972;5.668;2024-03-23T13:10:54;10.9;54.3
78479;SHT31;67769;51.972;5.668;2024-03-23T13:13:23;10.9;54.9
78479;SHT31;67769;51.972;5.668;2024-03-23T13:15:51;10.9;56.5
78479;SHT31;67769;51.972;5.668;2024-03-23T13:18:20;10.8;55.9
78479;SHT31;67769;51.972;5.668;2024-03-23T13:20:49;10.8;57.1
78479;SHT31;67769;51.972;5.668;2024-03-23T13:23:17;10.7;56.8
78479;SHT31;67769;51.972;5.668;2024-03-23T13:25:51;10.7;58.4
78479;SHT31;67769;51.972;5.668;2024-03-23T13:28:21;10.6;56.8
78479;SHT31;67769;51.972;5.668;2024-03-23T13:30:54;10.6;58.0
78479;SHT31;67769;51.972;5.668;2024-03-23T13:33:24;10.5;56.8
78479;SHT31;67769;51.972;5.668;2024-03-23T13:35:54;10.5;57.2
78479;SHT31;67769;51.972;5.668;2024-03-23T13:38:23;10.4;57.1
78479;SHT31;67769;51.972;5.668;2024-03-23T13:40:53;10.3;57.4
78479;SHT31;67769;51.972;5.668;2024-03-23T13:43:23;10.3;56.3
78479;SHT31;67769;51.972;5.668;2024-03-23T13:45:54;10.2;55.5
78479;SHT31;67769;51.972;5.668;2024-03-23T13:48:24;10.1;56.8
78479;SHT31;67769;51.972;5.668;2024-03-23T13:50:59;10.1;56.7
78479;SHT31;67769;51.972;5.668;2024-03-23T13:53:29;10.0;58.1
78479;SHT31;67769;51.972;5.668;2024-03-23T13:55:59;10.0;57.0
78479;SHT31;67769;51.972;5.668;2024-03-23T13:58:27;10.0;60.7
78479;SHT31;67769;51.972;5.668;2024-03-23T14:00:56;9.9;64.7
78479;SHT31;67769;51.972;5.668;2024-03-23T14:03:25;9.8;66.1
78479;SHT31;67769;51.972;5.668;2024-03-23T14:05:59;9.8;68.0
78479;SHT31;67769;51.972;5.668;2024-03-23T14:08:29;9.7;66.7
78479;SHT31;67769;51.972;5.668;2024-03-23T14:10:59;9.7;64.2
78479;SHT31;67769;51.972;5.668;2024-03-23T14:13:29;9.7;64.4
78479;SHT31;67769;51.972;5.668;2024-03-23T14:15:58;9.6;64.3
78479;SHT31;67769;51.972;5.668;2024-03-23T14:18:27;9.5;64.9
78479;SHT31;67769;51.972;5.668;2024-03-23T14:20:59;9.5;65.6
78479;SHT31;67769;51.972;5.668;2024-03-23T14:23:30;9.5;63.9
78479;SHT31;67769;51.972;5.668;2024-03-23T14:26:00;9.3;65.0
78479;SHT31;67769;51.972;5.668;2024-03-23T14:28:29;9.2;64.5
78479;SHT31;67769;51.972;5.668;2024-03-23T14:30:58;8.9;66.9
78479;SHT31;67769;51.972;5.668;2024-03-23T14:33:27;8.8;67.1
78479;SHT31;67769;51.972;5.668;2024-03-23T14:35:56;8.7;67.9
78479;SHT31;67769;51.972;5.668;2024-03-23T14:38:25;8.7;68.4
78479;SHT31;67769;51.972;5.668;2024-03-23T14:40:57;8.6;67.9
78479;SHT31;67769;51.972;5.668;2024-03-23T14:43:27;8.6;68.4
78479;SHT31;67769;51.972;5.668;2024-03-23T14:46:15;8.6;67.3
78479;SHT31;67769;51.972;5.668;2024-03-23T14:48:44;8.5;68.3
78479;SHT31;67769;51.972;5.668;2024-03-23T14:51:13;8.5;68.6
78479;SHT31;67769;51.972;5.668;2024-03-23T14:53:45;8.5;67.8
78479;SHT31;67769;51.972;5.668;2024-03-23T14:56:16;8.5;67.6
78479;SHT31;67769;51.972;5.668;2024-03-23T14:58:45;8.5;68.3
78479;SHT31;67769;51.972;5.668;2024-03-23T15:01:14;8.6;67.6
78479;SHT31;67769;51.972;5.668;2024-03-23T15:03:42;8.6;68.9
78479;SHT31;67769;51.972;5.668;2024-03-23T15:06:13;8.6;69.7
78479;SHT31;67769;51.972;5.668;2024-03-23T15:08:44;8.7;68.8
78479;SHT31;67769;51.972;5.668;2024-03-23T15:11:12;8.8;70.6
78479;SHT31;67769;51.972;5.668;2024-03-23T15:13:44;8.9;68.2
78479;SHT31;67769;51.972;5.668;2024-03-23T15:16:16;9.0;67.3
78479;SHT31;67769;51.972;5.668;2024-03-23T15:18:46;9.1;68.5
78479;SHT31;67769;51.972;5.668;2024-03-23T15:21:17;9.3;67.3
78479;SHT31;67769;51.972;5.668;2024-03-23T15:23:47;9.4;64.9
78479;SHT31;67769;51.972;5.668;2024-03-23T15:26:16;9.5;63.7
78479;SHT31;67769;51.972;5.668;2024-03-23T15:28:48;9.6;63.8
78479;SHT31;67769;51.972;5.668;2024-03-23T15:31:28;9.7;62.5
78479;SHT31;67769;51.972;5.668;2024-03-23T15:33:59;9.7;61.3
78479;SHT31;67769;51.972;5.668;2024-03-23T15:36:28;9.7;61.0
78479;SHT31;67769;51.972;5.668;2024-03-23T15:38:56;9.7;60.9
78479;SHT31;67769;51.972;5.668;2024-03-23T15:41:25;9.7;59.3
78479;SHT31;67769;51.972;5.668;2024-03-23T15:43:55;9.7;60.5
78479;SHT31;67769;51.972;5.668;2024-03-23T15:46:26;9.7;59.4
78479;SHT31;67769;51.972;5.668;2024-03-23T15:48:56;9.7;59.6
78479;SHT31;67769;51.972;5.668;2024-03-23T15:51:27;9.7;59.4
78479;SHT31;67769;51.972;5.668;2024-03-23T15:53:59;9.7;59.3
78479;SHT31;67769;51.972;5.668;2024-03-23T15:56:28;9.7;59.5
78479;SHT31;67769;51.972;5.668;2024-03-23T15:58:57;9.6;59.4
78479;SHT31;67769;51.972;5.668;2024-03-23T16:01:31;9.6;60.8
78479;SHT31;67769;51.972;5.668;2024-03-23T16:04:02;9.6;60.0
78479;SHT31;67769;51.972;5.668;2024-03-23T16:06:30;9.5;59.9
78479;SHT31;67769;51.972;5.668;2024-03-23T16:08:59;9.5;59.8
78479;SHT31;67769;51.972;5.668;2024-03-23T16:11:27;9.5;60.6
78479;SHT31;67769;51.972;5.668;2024-03-23T16:13:56;9.5;60.5
78479;SHT31;67769;51.972;5.668;2024-03-23T16:16:24;9.4;61.7
78479;SHT31;67769;51.972;5.668;2024-03-23T16:18:53;9.4;61.6
78479;SHT31;67769;51.972;5.668;2024-03-23T16:21:22;9.4;61.0
78479;SHT31;67769;51.972;5.668;2024-03-23T16:23:50;9.4;61.4
78479;SHT31;67769;51.972;5.668;2024-03-23T16:26:21;9.4;61.0
78479;SHT31;67769;51.972;5.668;2024-03-23T16:28:50;9.4;61.9
78479;SHT31;67769;51.972;5.668;2024-03-23T16:31:18;9.4;61.9
78479;SHT31;67769;51.972;5.668;2024-03-23T16:33:48;9.3;62.6
78479;SHT31;67769;51.972;5.668;2024-03-23T16:36:20;9.3;63.2
78479;SHT31;67769;51.972;5.668;2024-03-23T16:38:49;9.3;62.9
78479;SHT31;67769;51.972;5.668;2024-03-23T16:41:17;9.3;62.7
78479;SHT31;67769;51.972;5.668;2024-03-23T16:43:46;9.3;63.1
78479;SHT31;67769;51.972;5.668;2024-03-23T16:46:15;9.3;62.5
78479;SHT31;67769;51.972;5.668;2024-03-23T16:48:46;9.3;62.5
78479;SHT31;67769;51.972;5.668;2024-03-23T16:51:15;9.3;62.4
78479;SHT31;67769;51.972;5.668;2024-03-23T16:53:44;9.3;61.8
78479;SHT31;67769;51.972;5.668;2024-03-23T16:56:12;9.2;61.6
78479;SHT31;67769;51.972;5.668;2024-03-23T16:58:41;9.2;60.7
78479;SHT31;67769;51.972;5.668;2024-03-23T17:01:12;9.2;61.0
78479;SHT31;67769;51.972;5.668;2024-03-23T17:03:46;9.1;61.4
78479;SHT31;67769;51.972;5.668;2024-03-23T17:06:15;9.1;61.1
78479;SHT31;67769;51.972;5.668;2024-03-23T17:08:45;9.1;61.2
78479;SHT31;67769;51.972;5.668;2024-03-23T17:11:16;9.1;61.7
78479;SHT31;67769;51.972;5.668;2024-03-23T17:13:45;9.1;62.0
78479;SHT31;67769;51.972;5.668;2024-03-23T17:16:16;9.0;61.9
78479;SHT31;67769;51.972;5.668;2024-03-23T17:18:46;9.0;62.3
78479;SHT31;67769;51.972;5.668;2024-03-23T17:21:15;9.0;63.4
78479;SHT31;67769;51.972;5.668;2024-03-23T17:23:44;9.0;63.2